Time,TemperatureF,DewpointF,PressureIn,WindDirection,WindDirectionDegrees,WindSpeedMPH,WindSpeedGustMPH,Humidity,HourlyPrecipIn,Conditions,Clouds,dailyrainin,SoftwareType,DateUTC
2013-01-02 00:00:00,43.5,42.5,30.15,ENE,76,0.0,3.6,96,-99.99,,,0.00,VWS V14.01,2013-01-02 05:00:00,
2013-01-02 00:30:00,43.5,42.5,30.18,NNW,327,0.0,6.7,96,-99.99,,,0.00,VWS V14.01,2013-01-02 05:30:00,
2013-01-02 01:00:00,43.2,42.1,30.15,NW,313,0.0,6.9,96,-99.99,,,0.00,VWS V14.01,2013-01-02 06:00:00,
2013-01-02 01:30:00,40.5,39.4,30.18,NNW,343,0.0,9.6,96,-99.99,,,0.04,VWS V14.01,2013-01-02 06:30:00,
2013-01-02 02:00:00,39.9,38.9,30.18,NNE,31,0.0,6.9,96,-99.99,,,0.04,VWS V14.01,2013-01-02 07:00:00,
2013-01-02 02:30:00,38.8,37.8,30.21,ENE,68,0.0,6.9,96,-99.99,,,0.08,VWS V14.01,2013-01-02 07:30:00,
2013-01-02 03:00:00,38.5,37.4,30.21,East,82,4.0,7.4,96,-99.99,,,0.08,VWS V14.01,2013-01-02 08:00:00,
2013-01-02 03:30:00,38.5,37.4,30.18,ENE,61,5.8,7.4,96,-99.99,,,0.08,VWS V14.01,2013-01-02 08:30:00,
2013-01-02 04:00:00,38.1,37.3,30.18,NNE,30,0.0,7.8,97,-99.99,,,0.08,VWS V14.01,2013-01-02 09:00:00,
2013-01-02 04:30:00,36.7,35.7,30.21,NNW,327,0.0,6.7,96,-99.99,,,0.08,VWS V14.01,2013-01-02 09:30:00,
2013-01-02 05:00:00,35.8,35.0,30.18,NW,325,0.0,9.6,97,-99.99,,,0.08,VWS V14.01,2013-01-02 10:00:00,
2013-01-02 05:30:00,35.6,34.8,30.21,NNE,32,6.7,9.6,97,-99.99,,,0.08,VWS V14.01,2013-01-02 10:30:00,
2013-01-02 06:00:00,35.1,34.3,30.21,WNW,303,0.0,7.4,97,-99.99,,,0.08,VWS V14.01,2013-01-02 11:00:00,
2013-01-02 06:30:00,34.9,34.1,30.21,NNE,15,2.7,7.4,97,-99.99,,,0.08,VWS V14.01,2013-01-02 11:30:00,
2013-01-02 07:00:00,35.1,34.3,30.21,NE,51,2.7,6.7,97,-99.99,,,0.08,VWS V14.01,2013-01-02 12:00:00,
2013-01-02 07:30:00,34.7,33.9,30.21,NNE,31,0.0,6.3,97,-99.99,,,0.08,VWS V14.01,2013-01-02 12:30:00,
2013-01-02 08:00:00,34.2,33.4,30.24,NNE,21,0.0,9.2,97,-99.99,,,0.08,VWS V14.01,2013-01-02 13:00:00,
2013-01-02 08:30:00,34.0,33.2,30.24,North,1,0.0,7.4,97,-99.99,,,0.08,VWS V14.01,2013-01-02 13:30:00,
2013-01-02 09:00:00,34.3,33.6,30.24,NE,52,0.0,6.9,97,-99.99,,,0.08,VWS V14.01,2013-01-02 14:00:00,
2013-01-02 09:30:00,34.3,33.6,30.27,ENE,57,5.4,6.9,97,-99.99,,,0.08,VWS V14.01,2013-01-02 14:30:00,
2013-01-02 10:00:00,34.2,33.4,30.27,East,99,6.3,8.7,97,-99.99,,,0.08,VWS V14.01,2013-01-02 15:00:00,
2013-01-02 10:30:00,34.3,33.6,30.27,ENE,61,0.0,6.9,97,-99.99,,,0.08,VWS V14.01,2013-01-02 15:30:00,
2013-01-02 11:00:00,34.3,33.6,30.27,NNE,23,2.7,9.2,97,-99.99,,,0.08,VWS V14.01,2013-01-02 16:00:00,
2013-01-02 11:30:00,34.5,33.8,30.27,NE,54,5.4,8.7,97,-99.99,,,0.08,VWS V14.01,2013-01-02 16:30:00,
2013-01-02 12:00:00,34.9,34.1,30.27,ENE,66,0.0,8.7,97,-99.99,,,0.08,VWS V14.01,2013-01-02 17:00:00,
2013-01-02 12:30:00,34.7,33.9,30.27,East,82,4.0,8.7,97,-99.99,,,0.08,VWS V14.01,2013-01-02 17:30:00,
2013-01-02 13:00:00,34.9,34.1,30.24,ENE,67,4.0,7.8,97,-99.99,,,0.08,VWS V14.01,2013-01-02 18:00:00,
2013-01-02 13:30:00,34.9,34.1,30.24,ENE,72,0.0,7.8,97,-99.99,,,0.08,VWS V14.01,2013-01-02 18:30:00,
2013-01-02 14:00:00,35.1,34.3,30.24,ENE,57,3.1,6.3,97,-99.99,,,0.08,VWS V14.01,2013-01-02 19:00:00,
2013-01-02 14:30:00,34.9,34.1,30.24,NE,53,4.0,7.8,97,-99.99,,,0.08,VWS V14.01,2013-01-02 19:30:00,
2013-01-02 15:00:00,34.9,34.1,30.24,ENE,63,4.5,6.3,97,-99.99,,,0.08,VWS V14.01,2013-01-02 20:00:00,
2013-01-02 15:30:00,34.7,33.9,30.24,North,6,0.0,6.3,97,-99.99,,,0.08,VWS V14.01,2013-01-02 20:30:00,
2013-01-02 16:00:00,34.7,33.9,30.24,ENE,59,4.0,7.8,97,-99.99,,,0.08,VWS V14.01,2013-01-02 21:00:00,
2013-01-02 16:30:00,34.5,33.8,30.24,NE,52,2.7,9.2,97,-99.99,,,0.08,VWS V14.01,2013-01-02 21:30:00,
2013-01-02 17:00:00,34.5,33.8,30.27,NE,49,0.0,4.9,97,-99.99,,,0.08,VWS V14.01,2013-01-02 22:00:00,
2013-01-02 17:30:00,34.5,33.8,30.27,NE,47,0.0,6.7,97,-99.99,,,0.08,VWS V14.01,2013-01-02 22:30:00,
2013-01-02 18:00:00,34.3,33.6,30.27,ENE,58,3.6,7.4,97,-99.99,,,0.08,VWS V14.01,2013-01-02 23:00:00,
2013-01-02 18:30:00,34.3,33.6,30.27,NE,42,4.9,6.7,97,-99.99,,,0.08,VWS V14.01,2013-01-02 23:30:00,
2013-01-02 19:00:00,34.2,33.4,30.27,ENE,69,3.6,5.8,97,-99.99,,,0.08,VWS V14.01,2013-01-03 00:00:00,
2013-01-02 19:30:00,34.2,33.4,30.27,NE,50,4.5,5.8,97,-99.99,,,0.08,VWS V14.01,2013-01-03 00:30:00,
2013-01-02 20:00:00,34.2,33.4,30.27,NNE,31,0.0,5.8,97,-99.99,,,0.08,VWS V14.01,2013-01-03 01:00:00,
2013-01-02 20:30:00,34.0,33.2,30.27,ENE,59,0.0,5.8,97,-99.99,,,0.08,VWS V14.01,2013-01-03 01:30:00,
2013-01-02 21:00:00,34.0,33.2,30.30,NE,40,0.0,4.5,97,-99.99,,,0.08,VWS V14.01,2013-01-03 02:00:00,
2013-01-02 21:30:00,34.2,33.4,30.30,NE,41,0.0,3.1,97,-99.99,,,0.08,VWS V14.01,2013-01-03 02:30:00,
2013-01-02 22:00:00,34.3,33.6,30.30,NE,35,0.0,4.9,97,-99.99,,,0.08,VWS V14.01,2013-01-03 03:00:00,
2013-01-02 22:30:00,34.0,33.2,30.27,NE,35,0.0,3.6,97,-99.99,,,0.08,VWS V14.01,2013-01-03 03:30:00,
2013-01-02 23:00:00,33.8,33.0,30.27,NNE,12,0.0,6.3,97,-99.99,,,0.08,VWS V14.01,2013-01-03 04:00:00,
2013-01-02 23:30:00,33.6,32.9,30.30,North,351,0.0,5.4,97,-99.99,,,0.08,VWS V14.01,2013-01-03 04:30:00,